Time,TemperatureF,DewpointF,PressureIn,WindDirection,WindDirectionDegrees,WindSpeedMPH,WindSpeedGustMPH,Humidity,HourlyPrecipIn,Conditions,Clouds,dailyrainin,SoftwareType,DateUTC
2013-02-25 00:01:00,21.9,19.2,30.20,NW,314,0.0,0.0,89,0.00,,---,0.00,VWS V14.01,2013-02-25 05:01:00,
2013-02-25 00:16:00,20.8,18.1,30.21,NW,314,0.0,0.0,89,0.00,,---,0.00,VWS V14.01,2013-02-25 05:16:00,
2013-02-25 00:31:00,20.4,17.9,30.21,NW,314,0.0,0.0,90,0.00,,---,0.00,VWS V14.01,2013-02-25 05:31:00,
2013-02-25 00:46:00,20.3,18.4,30.21,NW,314,0.0,0.0,92,0.00,,---,0.00,VWS V14.01,2013-02-25 05:46:00,
2013-02-25 01:01:00,20.1,18.1,30.21,NW,314,0.0,0.0,92,0.00,,---,0.00,VWS V14.01,2013-02-25 06:01:00,
2013-02-25 01:16:00,20.5,18.8,30.21,NW,314,0.0,0.0,93,0.00,,---,0.00,VWS V14.01,2013-02-25 06:16:00,
2013-02-25 01:31:00,21.0,19.3,30.21,NW,314,0.0,0.0,93,0.00,,---,0.00,VWS V14.01,2013-02-25 06:31:00,
2013-02-25 01:46:00,22.4,20.7,30.21,NW,314,0.0,1.0,93,0.00,,---,0.00,VWS V14.01,2013-02-25 06:46:00,
2013-02-25 02:01:00,23.1,21.4,30.20,NW,314,0.0,2.0,93,0.00,,---,0.00,VWS V14.01,2013-02-25 07:01:00,
2013-02-25 02:16:00,23.8,22.1,30.20,NW,314,0.0,2.0,93,0.00,,---,0.00,VWS V14.01,2013-02-25 07:16:00,
2013-02-25 02:31:00,23.4,21.4,30.20,NW,314,0.0,1.0,92,0.00,,---,0.00,VWS V14.01,2013-02-25 07:31:00,
2013-02-25 02:46:00,22.8,20.6,30.20,NW,314,0.0,1.0,91,0.00,,---,0.00,VWS V14.01,2013-02-25 07:46:00,
2013-02-25 03:01:00,20.9,18.7,30.20,NW,314,0.0,1.0,91,0.00,,---,0.00,VWS V14.01,2013-02-25 08:01:00,
2013-02-25 03:16:00,20.7,18.8,30.21,NW,314,0.0,0.0,92,0.00,,---,0.00,VWS V14.01,2013-02-25 08:16:00,
2013-02-25 03:31:00,20.3,18.4,30.21,NW,314,0.0,0.0,92,0.00,,---,0.00,VWS V14.01,2013-02-25 08:31:00,
2013-02-25 03:46:00,19.7,17.8,30.21,NW,314,0.0,0.0,92,0.00,,---,0.00,VWS V14.01,2013-02-25 08:46:00,
2013-02-25 04:01:00,19.8,18.1,30.21,NW,314,0.0,0.0,93,0.00,,---,0.00,VWS V14.01,2013-02-25 09:01:00,
2013-02-25 04:16:00,20.3,18.6,30.20,NW,314,0.0,1.0,93,0.00,,---,0.00,VWS V14.01,2013-02-25 09:16:00,
2013-02-25 04:31:00,21.6,19.9,30.20,NW,314,0.0,2.0,93,0.00,,---,0.00,VWS V14.01,2013-02-25 09:31:00,
2013-02-25 04:46:00,21.4,19.7,30.20,NW,314,0.0,1.0,93,0.00,,---,0.00,VWS V14.01,2013-02-25 09:46:00,
2013-02-25 05:01:00,21.1,19.4,30.20,NW,314,0.0,1.0,93,0.00,,---,0.00,VWS V14.01,2013-02-25 10:01:00,
2013-02-25 05:16:00,21.3,19.6,30.20,NW,314,0.0,2.0,93,0.00,,---,0.00,VWS V14.01,2013-02-25 10:16:00,
2013-02-25 05:31:00,21.1,19.4,30.21,NW,314,0.0,1.0,93,0.00,,---,0.00,VWS V14.01,2013-02-25 10:31:00,
2013-02-25 05:46:00,20.1,18.1,30.23,NW,314,0.0,0.0,92,0.00,,---,0.00,VWS V14.01,2013-02-25 10:46:00,
2013-02-25 06:01:00,20.1,18.4,30.22,NW,314,0.0,0.0,93,0.00,,---,0.00,VWS V14.01,2013-02-25 11:01:00,
2013-02-25 06:16:00,21.7,20.2,30.22,East,90,2.0,3.0,94,0.00,,---,0.00,VWS V14.01,2013-02-25 11:16:00,
2013-02-25 06:31:00,22.6,20.9,30.22,ESE,113,3.0,6.0,93,0.00,,---,0.00,VWS V14.01,2013-02-25 11:31:00,
2013-02-25 06:46:00,22.1,20.1,30.22,ESE,113,1.0,4.0,92,0.00,,---,0.00,VWS V14.01,2013-02-25 11:46:00,
2013-02-25 07:01:00,22.1,20.1,30.23,ESE,113,1.0,4.0,92,0.00,,---,0.00,VWS V14.01,2013-02-25 12:01:00,
2013-02-25 07:16:00,21.9,19.9,30.23,ESE,113,2.0,3.0,92,0.00,,---,0.00,VWS V14.01,2013-02-25 12:16:00,
2013-02-25 07:31:00,22.1,20.1,30.24,ESE,113,1.0,4.0,92,0.00,,---,0.00,VWS V14.01,2013-02-25 12:31:00,
2013-02-25 07:46:00,22.0,20.0,30.24,ESE,113,3.0,3.0,92,0.00,,---,0.00,VWS V14.01,2013-02-25 12:46:00,
2013-02-25 08:01:00,22.6,20.4,30.24,ESE,113,2.0,4.0,91,0.00,,---,0.00,VWS V14.01,2013-02-25 13:01:00,
2013-02-25 08:16:00,23.3,21.1,30.25,ESE,113,0.0,4.0,91,0.00,,---,0.00,VWS V14.01,2013-02-25 13:16:00,
2013-02-25 08:31:00,24.2,21.7,30.25,ESE,113,0.0,2.0,90,0.00,,---,0.00,VWS V14.01,2013-02-25 13:31:00,
2013-02-25 08:46:00,25.4,22.6,30.24,ESE,113,2.0,2.0,89,0.00,,---,0.00,VWS V14.01,2013-02-25 13:46:00,
2013-02-25 09:01:00,26.5,23.2,30.24,ESE,113,0.0,4.0,87,0.00,,---,0.00,VWS V14.01,2013-02-25 14:01:00,
2013-02-25 09:16:00,27.5,23.3,30.23,ESE,106,4.0,5.0,84,0.00,,---,0.00,VWS V14.01,2013-02-25 14:16:00,
2013-02-25 09:31:00,28.4,23.6,30.23,ESE,112,2.0,8.0,82,0.00,,---,0.00,VWS V14.01,2013-02-25 14:31:00,
2013-02-25 09:46:00,29.8,24.4,30.23,East,99,3.0,6.0,80,0.00,,---,0.00,VWS V14.01,2013-02-25 14:46:00,
2013-02-25 10:01:00,30.8,24.8,30.22,ESE,102,5.0,7.0,78,0.00,,---,0.00,VWS V14.01,2013-02-25 15:01:00,
2013-02-25 10:16:00,31.4,25.0,30.22,ESE,105,3.0,8.0,77,0.00,,---,0.00,VWS V14.01,2013-02-25 15:16:00,
2013-02-25 10:31:00,33.3,25.9,30.22,SE,136,3.0,9.0,74,0.00,,---,0.00,VWS V14.01,2013-02-25 15:31:00,
2013-02-25 10:46:00,34.1,25.4,30.22,East,101,7.0,10.0,70,0.00,,---,0.00,VWS V14.01,2013-02-25 15:46:00,
2013-02-25 11:01:00,34.9,25.8,30.22,ESE,103,4.0,9.0,69,0.00,,---,0.00,VWS V14.01,2013-02-25 16:01:00,
2013-02-25 11:16:00,35.4,26.3,30.23,SE,137,2.0,10.0,69,0.00,,---,0.00,VWS V14.01,2013-02-25 16:16:00,
2013-02-25 11:31:00,36.0,26.1,30.22,SSE,156,4.0,11.0,67,0.00,,---,0.00,VWS V14.01,2013-02-25 16:31:00,
2013-02-25 11:46:00,36.0,25.4,30.21,East,101,3.0,10.0,65,0.00,,---,0.00,VWS V14.01,2013-02-25 16:46:00,
2013-02-25 12:01:00,36.4,25.4,30.21,ESE,105,5.0,10.0,64,0.00,,---,0.00,VWS V14.01,2013-02-25 17:01:00,
2013-02-25 12:16:00,36.4,25.8,30.20,SE,129,6.0,11.0,65,0.00,,---,0.00,VWS V14.01,2013-02-25 17:16:00,
2013-02-25 12:31:00,37.3,25.9,30.19,East,89,7.0,9.0,63,0.00,,---,0.00,VWS V14.01,2013-02-25 17:31:00,
2013-02-25 12:46:00,37.4,25.6,30.19,ESE,121,3.0,10.0,62,0.00,,---,0.00,VWS V14.01,2013-02-25 17:46:00,
2013-02-25 13:01:00,37.6,25.4,30.19,East,88,5.0,13.0,61,0.00,,---,0.00,VWS V14.01,2013-02-25 18:01:00,
2013-02-25 13:16:00,37.8,25.6,30.19,South,173,4.0,10.0,61,0.00,,---,0.00,VWS V14.01,2013-02-25 18:16:00,
2013-02-25 13:31:00,37.8,24.4,30.19,SE,126,2.0,12.0,58,0.00,,---,0.00,VWS V14.01,2013-02-25 18:31:00,
2013-02-25 13:46:00,38.2,24.7,30.19,East,91,6.0,10.0,58,0.00,,---,0.00,VWS V14.01,2013-02-25 18:46:00,
2013-02-25 14:01:00,38.0,25.0,30.19,ESE,106,1.0,10.0,59,0.00,,---,0.00,VWS V14.01,2013-02-25 19:01:00,
2013-02-25 14:16:00,38.5,25.4,30.17,SSE,158,6.0,9.0,59,0.00,,---,0.00,VWS V14.01,2013-02-25 19:16:00,
2013-02-25 14:31:00,38.8,25.7,30.16,ESE,103,0.0,8.0,59,0.00,,---,0.00,VWS V14.01,2013-02-25 19:31:00,
2013-02-25 14:46:00,39.1,25.6,30.15,SE,140,4.0,10.0,58,0.00,,---,0.00,VWS V14.01,2013-02-25 19:46:00,
2013-02-25 15:01:00,39.0,25.5,30.15,SE,129,2.0,11.0,58,0.00,,---,0.00,VWS V14.01,2013-02-25 20:01:00,
2013-02-25 15:16:00,39.5,26.0,30.15,ESE,117,9.0,9.0,58,0.00,,---,0.00,VWS V14.01,2013-02-25 20:16:00,
2013-02-25 15:31:00,39.6,26.1,30.14,East,90,8.0,10.0,58,0.00,,---,0.00,VWS V14.01,2013-02-25 20:31:00,
2013-02-25 15:46:00,39.9,26.8,30.13,East,100,6.0,9.0,59,0.00,,---,0.00,VWS V14.01,2013-02-25 20:46:00,
2013-02-25 16:01:00,39.8,27.1,30.13,SE,134,5.0,8.0,60,0.00,,---,0.00,VWS V14.01,2013-02-25 21:01:00,
2013-02-25 16:16:00,40.1,27.4,30.13,SE,135,5.0,8.0,60,0.00,,---,0.00,VWS V14.01,2013-02-25 21:16:00,
2013-02-25 16:31:00,40.0,26.0,30.14,ESE,109,1.0,10.0,57,0.00,,---,0.00,VWS V14.01,2013-02-25 21:31:00,
2013-02-25 16:46:00,40.3,26.3,30.14,East,91,9.0,9.0,57,0.00,,---,0.00,VWS V14.01,2013-02-25 21:46:00,
2013-02-25 17:01:00,40.2,27.4,30.13,East,84,2.0,11.0,60,0.00,,---,0.00,VWS V14.01,2013-02-25 22:01:00,
2013-02-25 17:16:00,39.7,26.6,30.13,East,93,5.0,10.0,59,0.00,,---,0.00,VWS V14.01,2013-02-25 22:16:00,
2013-02-25 17:31:00,39.2,26.9,30.12,NE,52,1.0,10.0,61,0.00,,---,0.00,VWS V14.01,2013-02-25 22:31:00,
2013-02-25 17:46:00,38.7,26.8,30.11,ENE,71,1.0,10.0,62,0.00,,---,0.00,VWS V14.01,2013-02-25 22:46:00,
2013-02-25 18:01:00,38.0,26.9,30.12,East,96,5.0,8.0,64,0.00,,---,0.00,VWS V14.01,2013-02-25 23:01:00,
2013-02-25 18:16:00,37.8,27.1,30.12,ESE,105,2.0,8.0,65,0.00,,---,0.00,VWS V14.01,2013-02-25 23:16:00,
2013-02-25 18:31:00,36.9,27.0,30.11,ENE,65,0.0,6.0,67,0.00,,---,0.00,VWS V14.01,2013-02-25 23:31:00,
2013-02-25 18:46:00,36.3,27.1,30.11,ENE,68,0.0,4.0,69,0.00,,---,0.00,VWS V14.01,2013-02-25 23:46:00,
2013-02-25 19:01:00,35.5,27.0,30.10,ENE,61,0.0,4.0,71,0.00,,---,0.00,VWS V14.01,2013-02-26 00:01:00,
2013-02-25 19:16:00,35.1,27.0,30.11,ENE,60,0.0,4.0,72,0.00,,---,0.00,VWS V14.01,2013-02-26 00:16:00,
2013-02-25 19:31:00,34.9,26.8,30.10,ENE,70,1.0,3.0,72,0.00,,---,0.00,VWS V14.01,2013-02-26 00:31:00,
2013-02-25 19:46:00,34.9,27.1,30.11,East,95,2.0,5.0,73,0.00,,---,0.00,VWS V14.01,2013-02-26 00:46:00,
2013-02-25 20:01:00,34.7,27.3,30.10,East,95,1.0,5.0,74,0.00,,---,0.00,VWS V14.01,2013-02-26 01:01:00,
2013-02-25 20:16:00,34.2,27.4,30.08,East,95,1.0,5.0,76,0.00,,---,0.00,VWS V14.01,2013-02-26 01:16:00,
2013-02-25 20:31:00,34.0,27.2,30.07,NE,55,1.0,5.0,76,0.00,,---,0.00,VWS V14.01,2013-02-26 01:31:00,
2013-02-25 20:46:00,33.7,27.0,30.07,ENE,61,3.0,6.0,76,0.00,,---,0.00,VWS V14.01,2013-02-26 01:46:00,
2013-02-25 21:01:00,33.6,26.9,30.07,ENE,72,3.0,9.0,76,0.00,,---,0.00,VWS V14.01,2013-02-26 02:01:00,
2013-02-25 21:16:00,33.4,26.3,30.07,ENE,74,4.0,8.0,75,0.00,,---,0.00,VWS V14.01,2013-02-26 02:16:00,
2013-02-25 21:31:00,33.1,26.4,30.07,ENE,78,5.0,6.0,76,0.00,,---,0.00,VWS V14.01,2013-02-26 02:31:00,
2013-02-25 21:46:00,32.7,26.3,30.08,ENE,60,3.0,7.0,77,0.00,,---,0.00,VWS V14.01,2013-02-26 02:46:00,
2013-02-25 22:01:00,32.5,26.1,30.09,ENE,78,2.0,5.0,77,0.00,,---,0.00,VWS V14.01,2013-02-26 03:01:00,
2013-02-25 22:16:00,32.5,26.1,30.09,ENE,74,4.0,7.0,77,0.00,,---,0.00,VWS V14.01,2013-02-26 03:16:00,
2013-02-25 22:31:00,32.4,26.3,30.09,East,93,2.0,6.0,78,0.00,,---,0.00,VWS V14.01,2013-02-26 03:31:00,
2013-02-25 22:46:00,33.3,26.6,30.10,East,101,3.0,11.0,76,0.00,,---,0.00,VWS V14.01,2013-02-26 03:46:00,
2013-02-25 23:01:00,33.3,26.6,30.10,ESE,109,8.0,14.0,76,0.00,,---,0.00,VWS V14.01,2013-02-26 04:01:00,
2013-02-25 23:16:00,33.1,26.7,30.09,East,94,1.0,15.0,77,0.00,,---,0.00,VWS V14.01,2013-02-26 04:16:00,
2013-02-25 23:31:00,32.6,26.5,30.08,East,91,6.0,11.0,78,0.00,,---,0.00,VWS V14.01,2013-02-26 04:31:00,
2013-02-25 23:46:00,32.2,26.4,30.08,ENE,72,4.0,11.0,79,0.00,,---,0.00,VWS V14.01,2013-02-26 04:46:00,